createdAt,value
2018-07-15T00:02:12.147Z,10.60
2018-07-15T00:04:40.775Z,9.53
2018-07-15T00:07:09.550Z,13.17
2018-07-15T00:09:38.083Z,10.63
2018-07-15T00:12:07.518Z,8.70
2018-07-15T00:14:36.026Z,8.90
2018-07-15T00:17:04.819Z,13.47
2018-07-15T00:19:34.569Z,10.67
2018-07-15T00:22:03.408Z,10.37
2018-07-15T00:24:31.979Z,13.07
2018-07-15T00:27:00.228Z,12.13
2018-07-15T00:29:28.856Z,15.73
2018-07-15T00:31:57.598Z,15.33
2018-07-15T00:34:26.463Z,17.30
2018-07-15T00:36:55.220Z,18.53
2018-07-15T00:39:23.793Z,13.40
2018-07-15T00:41:52.831Z,12.97
2018-07-15T00:44:21.582Z,14.43
2018-07-15T00:46:50.353Z,14.73
2018-07-15T00:49:18.906Z,15.43
2018-07-15T00:51:48.184Z,16.33
2018-07-15T00:54:16.896Z,15.27
2018-07-15T00:56:45.546Z,14.83
2018-07-15T00:59:14.180Z,16.17
2018-07-15T01:01:42.704Z,15.27
2018-07-15T01:04:11.322Z,15.17
2018-07-15T01:06:40.929Z,14.83
2018-07-15T01:09:10.560Z,16.47
2018-07-15T01:11:39.482Z,15.37
2018-07-15T01:14:08.633Z,12.63
2018-07-15T01:16:38.261Z,16.67
2018-07-15T01:19:06.870Z,15.17
2018-07-15T01:21:35.479Z,16.57
2018-07-15T01:24:04.073Z,14.37
2018-07-15T01:26:32.726Z,16.40
2018-07-15T01:29:01.502Z,14.30
2018-07-15T01:31:30.126Z,15.33
2018-07-15T01:33:58.639Z,16.90
2018-07-15T01:36:27.243Z,14.57
2018-07-15T01:38:55.816Z,12.80
2018-07-15T01:41:24.418Z,15.37
2018-07-15T01:43:52.980Z,15.90
2018-07-15T01:46:21.877Z,16.77
2018-07-15T01:48:50.496Z,17.47
2018-07-15T01:51:19.377Z,14.40
2018-07-15T01:53:48.048Z,13.83
2018-07-15T01:56:16.560Z,16.57
2018-07-15T01:58:45.155Z,17.30
2018-07-15T02:01:13.700Z,13.83
2018-07-15T02:03:42.394Z,16.97
2018-07-15T02:06:11.252Z,15.27
2018-07-15T02:08:40.578Z,14.90
2018-07-15T02:11:09.342Z,15.87
2018-07-15T02:13:37.967Z,15.70
2018-07-15T02:16:06.601Z,17.60
2018-07-15T02:18:35.322Z,16.53
2018-07-15T02:21:04.023Z,16.83
2018-07-15T02:23:32.575Z,15.77
2018-07-15T02:26:01.168Z,17.83
2018-07-15T02:28:29.737Z,15.37
2018-07-15T02:30:58.332Z,15.80
2018-07-15T02:33:27.128Z,19.50
2018-07-15T02:35:55.790Z,16.13
2018-07-15T02:38:24.327Z,16.00
2018-07-15T02:40:53.042Z,14.47
2018-07-15T02:43:21.763Z,16.60
2018-07-15T02:45:50.334Z,17.40
2018-07-15T02:48:18.898Z,16.43
2018-07-15T02:50:47.438Z,17.67
2018-07-15T02:53:15.984Z,17.77
2018-07-15T02:55:44.693Z,17.33
2018-07-15T02:58:13.296Z,16.77
2018-07-15T03:00:42.090Z,17.07
2018-07-15T03:03:10.702Z,17.13
2018-07-15T03:05:40.003Z,16.03
2018-07-15T03:08:09.096Z,16.57
2018-07-15T03:10:37.736Z,15.97
2018-07-15T03:13:06.361Z,17.07
2018-07-15T03:15:35.073Z,17.30
2018-07-15T03:18:04.010Z,16.23
2018-07-15T03:20:32.620Z,15.90
2018-07-15T03:23:01.690Z,16.87
2018-07-15T03:25:30.426Z,14.63
2018-07-15T03:27:59.264Z,16.27
2018-07-15T03:30:27.828Z,16.70
2018-07-15T03:32:56.640Z,16.50
2018-07-15T03:35:25.208Z,13.77
2018-07-15T03:37:53.804Z,15.47
2018-07-15T03:40:22.819Z,15.20
2018-07-15T03:42:51.503Z,15.43
2018-07-15T03:45:20.098Z,15.03
2018-07-15T03:47:48.775Z,17.07
2018-07-15T03:50:17.397Z,17.53
2018-07-15T03:52:45.933Z,17.23
2018-07-15T03:55:14.580Z,17.82
2018-07-15T03:57:43.182Z,16.77
2018-07-15T04:00:11.762Z,17.97
2018-07-15T04:02:40.381Z,15.83
2018-07-15T04:05:09.581Z,17.03
2018-07-15T04:07:37.807Z,16.50
2018-07-15T04:10:06.588Z,15.73
2018-07-15T04:12:35.137Z,17.70
2018-07-15T04:15:04.103Z,16.27
2018-07-15T04:17:32.701Z,15.37
2018-07-15T04:20:00.899Z,16.80
2018-07-15T04:22:29.523Z,16.60
2018-07-15T04:24:58.225Z,16.63
2018-07-15T04:27:26.783Z,15.80
2018-07-15T04:29:55.310Z,16.53
2018-07-15T04:32:23.880Z,16.63
2018-07-15T04:34:52.300Z,14.57
2018-07-15T04:37:21.091Z,14.67
2018-07-15T04:39:49.725Z,15.83
2018-07-15T04:42:18.283Z,15.57
2018-07-15T04:44:46.889Z,15.90
2018-07-15T04:47:15.465Z,14.63
2018-07-15T04:49:43.726Z,15.00
2018-07-15T04:52:12.329Z,16.50
2018-07-15T04:54:40.910Z,14.23
2018-07-15T04:57:09.436Z,15.63
2018-07-15T04:59:37.974Z,14.67
2018-07-15T05:02:06.836Z,15.70
2018-07-15T05:04:35.387Z,13.60
2018-07-15T05:07:03.980Z,16.13
2018-07-15T05:09:32.915Z,17.33
2018-07-15T05:12:01.186Z,13.27
2018-07-15T05:14:29.792Z,14.67
2018-07-15T05:16:58.384Z,13.30
2018-07-15T05:19:26.940Z,12.00
2018-07-15T05:21:56.364Z,12.77
2018-07-15T05:24:24.944Z,12.47
2018-07-15T05:26:53.556Z,13.17
2018-07-15T05:29:22.139Z,14.03
2018-07-15T05:31:51.047Z,14.93
2018-07-15T05:34:19.828Z,12.80
2018-07-15T05:36:48.424Z,11.50
2018-07-15T05:41:43.990Z,11.90
2018-07-15T05:44:12.887Z,13.07
2018-07-15T05:46:41.661Z,11.33
2018-07-15T05:49:10.686Z,10.70
2018-07-15T05:51:39.442Z,12.77
2018-07-15T05:54:08.313Z,10.73
2018-07-15T05:56:37.004Z,10.47
2018-07-15T05:59:05.280Z,10.73
2018-07-15T06:01:34.095Z,10.87
2018-07-15T06:04:02.682Z,11.67
2018-07-15T06:06:31.678Z,10.30
2018-07-15T06:09:00.345Z,12.33
2018-07-15T06:11:28.880Z,11.10
2018-07-15T06:13:57.634Z,11.63
2018-07-15T06:16:26.247Z,10.53
2018-07-15T06:18:54.827Z,11.00
2018-07-15T06:21:23.400Z,11.00
2018-07-15T06:23:52.355Z,10.17
2018-07-15T06:26:21.261Z,10.57
2018-07-15T06:28:50.023Z,12.23
2018-07-15T06:31:19.231Z,10.37
2018-07-15T06:33:47.850Z,9.80
2018-07-15T06:36:16.514Z,11.37
2018-07-15T06:38:45.251Z,10.17
2018-07-15T06:41:13.469Z,11.13
2018-07-15T06:43:42.159Z,10.63
2018-07-15T06:46:11.825Z,9.73
2018-07-15T06:48:40.413Z,9.53
2018-07-15T06:51:09.083Z,7.30
2018-07-15T06:53:37.327Z,9.17
2018-07-15T06:56:06.203Z,9.20
2018-07-15T06:58:34.833Z,9.60
2018-07-15T07:01:03.074Z,8.63
2018-07-15T07:03:31.660Z,8.73
2018-07-15T07:06:00.297Z,8.97
2018-07-15T07:08:29.136Z,8.93
2018-07-15T07:10:57.884Z,8.87
2018-07-15T07:13:26.476Z,8.47
2018-07-15T07:15:55.067Z,10.23
2018-07-15T07:18:23.591Z,7.90
2018-07-15T07:20:52.149Z,6.33
2018-07-15T07:23:20.764Z,6.27
2018-07-15T07:25:49.776Z,7.30
2018-07-15T07:28:18.511Z,6.93
2018-07-15T07:30:47.310Z,6.10
2018-07-15T07:33:15.873Z,6.23
2018-07-15T07:35:44.557Z,6.20
2018-07-15T07:38:13.230Z,5.70
2018-07-15T07:40:41.831Z,5.43
2018-07-15T07:43:10.220Z,6.60
2018-07-15T07:45:39.270Z,8.33
2018-07-15T07:48:07.854Z,6.47
2018-07-15T07:50:36.442Z,5.30
2018-07-15T07:53:05.205Z,6.53
2018-07-15T07:55:33.876Z,4.87
2018-07-15T07:58:02.546Z,6.07
2018-07-15T08:00:31.156Z,5.67
2018-07-15T08:02:59.745Z,7.80
2018-07-15T08:05:28.357Z,4.50
2018-07-15T08:07:56.906Z,5.50
2018-07-15T08:10:25.817Z,6.60
2018-07-15T08:12:54.388Z,7.10
2018-07-15T08:15:23.388Z,4.53
2018-07-15T08:17:51.979Z,3.93
2018-07-15T08:20:20.526Z,4.67
2018-07-15T08:22:49.115Z,4.63
2018-07-15T08:25:17.658Z,3.60
2018-07-15T08:27:46.261Z,4.03
2018-07-15T08:30:26.016Z,4.00
2018-07-15T08:32:54.813Z,3.70
2018-07-15T08:35:23.655Z,4.00
2018-07-15T08:37:52.225Z,3.93
2018-07-15T08:40:20.774Z,3.30
2018-07-15T08:42:49.335Z,3.50
2018-07-15T08:45:18.091Z,3.80
2018-07-15T08:47:46.659Z,4.03
2018-07-15T08:50:15.282Z,3.10
2018-07-15T08:52:43.973Z,3.07
2018-07-15T08:55:12.803Z,3.57
2018-07-15T08:57:41.437Z,3.57
2018-07-15T09:00:10.219Z,4.37
2018-07-15T09:02:39.005Z,3.47
2018-07-15T09:05:07.591Z,4.00
2018-07-15T09:07:36.809Z,4.33
2018-07-15T09:10:05.688Z,3.50
2018-07-15T09:12:34.724Z,3.23
2018-07-15T09:15:03.976Z,3.00
2018-07-15T09:17:32.775Z,5.90
2018-07-15T09:20:01.430Z,4.67
2018-07-15T09:22:30.175Z,3.40
2018-07-15T09:24:58.693Z,2.70
2018-07-15T09:27:27.410Z,3.00
2018-07-15T09:29:56.116Z,3.87
2018-07-15T09:32:24.779Z,4.30
2018-07-15T09:34:53.445Z,3.13
2018-07-15T09:37:22.438Z,4.37
2018-07-15T09:39:51.002Z,3.10
2018-07-15T09:42:19.594Z,3.80
2018-07-15T09:44:48.188Z,2.87
2018-07-15T09:47:16.968Z,2.70
2018-07-15T09:49:45.698Z,3.30
2018-07-15T09:52:14.712Z,4.27
2018-07-15T09:54:43.268Z,4.87
2018-07-15T09:57:11.894Z,3.13
2018-07-15T09:59:40.454Z,3.50
2018-07-15T10:02:09.110Z,3.77
2018-07-15T10:04:37.743Z,3.03
2018-07-15T10:07:06.317Z,3.03
2018-07-15T10:09:34.554Z,3.57
2018-07-15T10:12:03.419Z,2.60
2018-07-15T10:14:32.082Z,3.07
2018-07-15T10:17:00.676Z,4.10
2018-07-15T10:19:29.476Z,3.07
2018-07-15T10:21:58.147Z,2.87
2018-07-15T10:24:27.316Z,2.90
2018-07-15T10:26:55.972Z,3.83
2018-07-15T10:29:24.582Z,3.13
2018-07-15T10:31:53.218Z,2.73
2018-07-15T10:34:21.850Z,4.03
2018-07-15T10:36:51.194Z,2.70
2018-07-15T10:39:19.732Z,3.30
2018-07-15T10:41:48.451Z,3.27
2018-07-15T10:44:17.042Z,4.60
2018-07-15T10:46:47.346Z,3.43
2018-07-15T10:49:16.187Z,3.40
2018-07-15T10:51:44.787Z,5.60
2018-07-15T10:54:13.503Z,4.30
2018-07-15T10:56:42.108Z,4.40
2018-07-15T10:59:10.687Z,3.40
2018-07-15T11:01:39.295Z,3.63
2018-07-15T11:04:07.933Z,3.47
2018-07-15T11:06:36.506Z,4.17
2018-07-15T11:09:07.326Z,3.63
2018-07-15T11:11:36.036Z,2.80
2018-07-15T11:14:04.671Z,2.77
2018-07-15T11:16:33.372Z,2.57
2018-07-15T11:19:02.520Z,2.80
2018-07-15T11:21:31.361Z,4.20
2018-07-15T11:23:59.968Z,3.20
2018-07-15T11:26:28.578Z,2.80
2018-07-15T11:28:57.231Z,4.10
2018-07-15T11:31:26.056Z,2.70
2018-07-15T11:33:54.657Z,2.73
2018-07-15T11:36:23.495Z,2.97
2018-07-15T11:38:52.337Z,4.00
2018-07-15T11:41:20.936Z,3.60
2018-07-15T11:43:49.285Z,2.70
2018-07-15T11:46:18.398Z,2.67
2018-07-15T11:48:47.336Z,2.73
2018-07-15T11:51:16.176Z,5.40
2018-07-15T11:53:44.725Z,2.80
2018-07-15T11:56:13.295Z,3.27
2018-07-15T11:58:41.859Z,4.17
2018-07-15T12:01:10.416Z,2.87
2018-07-15T12:03:38.974Z,3.10
2018-07-15T12:06:07.538Z,4.30
2018-07-15T12:08:36.305Z,3.00
2018-07-15T12:11:05.353Z,3.47
2018-07-15T12:13:34.101Z,2.73
2018-07-15T12:16:02.651Z,3.13
2018-07-15T12:18:31.476Z,5.30
2018-07-15T12:21:00.053Z,2.70
2018-07-15T12:23:28.628Z,3.00
2018-07-15T12:25:57.423Z,3.73
2018-07-15T12:28:26.010Z,3.43
2018-07-15T12:30:54.818Z,3.07
2018-07-15T12:33:23.459Z,4.47
2018-07-15T12:35:53.046Z,2.90
2018-07-15T12:38:21.870Z,4.10
2018-07-15T12:40:50.753Z,3.87
2018-07-15T12:43:19.432Z,4.43
2018-07-15T12:45:48.076Z,3.10
2018-07-15T12:48:16.747Z,4.13
2018-07-15T12:50:45.069Z,3.27
2018-07-15T12:53:13.737Z,2.70
2018-07-15T12:55:42.536Z,2.53
2018-07-15T12:58:11.300Z,2.70
2018-07-15T13:00:39.909Z,3.00
2018-07-15T13:03:08.698Z,4.63
2018-07-15T13:05:37.343Z,2.80
2018-07-15T13:08:06.019Z,2.57
2018-07-15T13:10:34.700Z,3.40
2018-07-15T13:13:03.318Z,2.60
2018-07-15T13:15:32.002Z,2.57
2018-07-15T13:18:00.914Z,2.60
2018-07-15T13:20:29.901Z,2.97
2018-07-15T13:22:58.673Z,2.67
2018-07-15T13:25:27.727Z,2.77
2018-07-15T13:27:56.348Z,2.87
2018-07-15T13:30:24.999Z,3.00
2018-07-15T13:32:53.664Z,3.70
2018-07-15T13:35:22.309Z,4.27
2018-07-15T13:37:50.889Z,2.70
2018-07-15T13:40:19.549Z,3.17
2018-07-15T13:42:48.254Z,2.80
2018-07-15T13:45:16.847Z,4.00
2018-07-15T13:47:45.722Z,2.80
2018-07-15T13:50:14.380Z,3.57
2018-07-15T13:52:43.292Z,3.60
2018-07-15T13:55:11.971Z,2.60
2018-07-15T13:57:40.740Z,2.77
2018-07-15T14:00:09.982Z,2.97
2018-07-15T14:02:38.844Z,2.90
2018-07-15T14:05:07.783Z,2.60
2018-07-15T14:07:36.359Z,3.13
2018-07-15T14:10:05.382Z,3.17
2018-07-15T14:12:34.267Z,2.60
2018-07-15T14:15:02.832Z,2.73
2018-07-15T14:17:31.428Z,3.23
2018-07-15T14:20:00.306Z,2.70
2018-07-15T14:22:28.939Z,2.57
2018-07-15T14:24:57.817Z,3.97
2018-07-15T14:27:26.666Z,3.43
2018-07-15T14:29:55.272Z,3.97
2018-07-15T14:32:23.578Z,3.20
2018-07-15T14:34:52.251Z,2.57
2018-07-15T14:37:21.368Z,2.53
2018-07-15T14:39:49.986Z,3.17
2018-07-15T14:42:18.682Z,2.87
2018-07-15T14:44:47.548Z,2.53
2018-07-15T14:47:16.193Z,2.67
2018-07-15T14:49:44.844Z,2.93
2018-07-15T14:52:13.442Z,2.97
2018-07-15T14:54:42.444Z,5.60
2018-07-15T14:57:11.048Z,2.70
2018-07-15T14:59:39.564Z,2.90
2018-07-15T15:02:08.347Z,2.97
2018-07-15T15:04:36.964Z,3.20
2018-07-15T15:07:06.287Z,2.60
2018-07-15T15:09:34.966Z,2.40
2018-07-15T15:12:03.516Z,3.17
2018-07-15T15:14:32.710Z,2.67
2018-07-15T15:17:01.323Z,2.80
2018-07-15T15:19:29.919Z,2.60
2018-07-15T15:21:58.667Z,2.50
2018-07-15T15:24:27.883Z,2.80
2018-07-15T15:26:56.557Z,3.77
2018-07-15T15:29:25.371Z,4.13
2018-07-15T15:31:54.379Z,2.80
2018-07-15T15:34:23.988Z,3.57
2018-07-15T15:36:52.922Z,3.13
2018-07-15T15:39:21.589Z,3.03
2018-07-15T15:41:50.263Z,4.03
2018-07-15T15:44:18.942Z,2.60
2018-07-15T15:46:47.625Z,3.00
2018-07-15T15:49:16.351Z,2.30
2018-07-15T15:51:45.013Z,2.90
2018-07-15T15:54:13.764Z,2.80
2018-07-15T15:56:42.744Z,2.90
2018-07-15T15:59:11.651Z,3.20
2018-07-15T16:01:40.212Z,4.90
2018-07-15T16:04:08.815Z,2.70
2018-07-15T16:06:37.387Z,4.00
2018-07-15T16:09:08.393Z,3.40
2018-07-15T16:11:37.191Z,2.90
2018-07-15T16:14:06.087Z,2.57
2018-07-15T16:16:34.769Z,2.90
2018-07-15T16:19:03.442Z,5.37
2018-07-15T16:21:32.298Z,2.80
2018-07-15T16:24:00.954Z,3.03
2018-07-15T16:26:29.635Z,3.40
2018-07-15T16:28:58.472Z,4.10
2018-07-15T16:31:27.245Z,2.57
2018-07-15T16:33:55.873Z,2.67
2018-07-15T16:36:24.999Z,2.40
2018-07-15T16:38:53.656Z,2.60
2018-07-15T16:41:22.370Z,2.90
2018-07-15T16:43:51.038Z,2.80
2018-07-15T16:46:19.923Z,3.07
2018-07-15T16:48:48.516Z,2.80
2018-07-15T16:51:17.141Z,3.47
2018-07-15T16:53:45.741Z,2.80
2018-07-15T16:56:14.600Z,2.70
2018-07-15T16:58:43.238Z,3.97
2018-07-15T17:01:11.820Z,2.60
2018-07-15T17:03:40.618Z,3.27
2018-07-15T17:06:09.214Z,2.87
2018-07-15T17:08:38.389Z,3.17
2018-07-15T17:11:07.560Z,2.80
2018-07-15T17:13:36.171Z,2.97
2018-07-15T17:16:05.189Z,2.50
2018-07-15T17:18:33.837Z,2.53
2018-07-15T17:21:02.591Z,2.50
2018-07-15T17:23:31.205Z,2.70
2018-07-15T17:25:59.823Z,2.47
2018-07-15T17:28:28.575Z,3.43
2018-07-15T17:30:57.142Z,2.80
2018-07-15T17:33:27.374Z,2.37
2018-07-15T17:35:55.959Z,2.47
2018-07-15T17:38:24.659Z,2.53
2018-07-15T17:40:53.279Z,2.50
2018-07-15T17:43:21.907Z,2.40
2018-07-15T17:45:51.069Z,10.53
2018-07-15T17:48:19.383Z,2.57
2018-07-15T17:50:47.963Z,2.27
2018-07-15T17:53:16.907Z,2.43
2018-07-15T17:55:47.213Z,2.20
2018-07-15T17:58:16.309Z,2.30
2018-07-15T18:00:44.970Z,2.70
2018-07-15T18:03:13.758Z,2.30
2018-07-15T18:05:42.310Z,2.50
2018-07-15T18:08:11.199Z,2.47
2018-07-15T18:10:39.834Z,2.77
2018-07-15T18:13:08.688Z,1.97
2018-07-15T18:15:38.098Z,2.40
2018-07-15T18:18:06.970Z,2.37
2018-07-15T18:20:35.663Z,2.20
2018-07-15T18:23:04.966Z,2.20
2018-07-15T18:25:34.864Z,2.27
2018-07-15T18:28:03.506Z,2.07
2018-07-15T18:30:32.093Z,3.00
2018-07-15T18:33:01.146Z,1.90
2018-07-15T18:35:29.794Z,2.23
2018-07-15T18:37:58.602Z,2.27
2018-07-15T18:40:27.400Z,2.27
2018-07-15T18:42:56.058Z,2.47
2018-07-15T18:45:25.034Z,2.67
2018-07-15T18:47:54.292Z,2.37
2018-07-15T18:50:22.876Z,3.90
2018-07-15T18:52:51.588Z,2.17
2018-07-15T18:55:20.186Z,2.03
2018-07-15T18:57:48.805Z,1.97
2018-07-15T19:00:17.412Z,2.30
2018-07-15T19:02:46.180Z,2.17
2018-07-15T19:05:14.823Z,1.80
2018-07-15T19:07:43.428Z,2.67
2018-07-15T19:10:12.334Z,2.67
2018-07-15T19:12:40.953Z,3.20
2018-07-15T19:15:09.929Z,2.73
2018-07-15T19:17:38.554Z,1.80
2018-07-15T19:20:07.198Z,1.70
2018-07-15T19:22:35.877Z,2.13
2018-07-15T19:25:04.668Z,3.27
2018-07-15T19:27:33.216Z,1.90
2018-07-15T19:30:02.014Z,2.30
2018-07-15T19:32:31.011Z,1.60
2018-07-15T19:34:59.657Z,1.93
2018-07-15T19:37:28.318Z,2.10
2018-07-15T19:39:57.533Z,2.03
2018-07-15T19:42:26.222Z,1.60
2018-07-15T19:44:55.711Z,1.70
2018-07-15T19:47:23.980Z,1.90
2018-07-15T19:49:52.844Z,1.77
2018-07-15T19:52:21.468Z,2.13
2018-07-15T19:54:50.313Z,1.80
2018-07-15T19:57:18.948Z,3.37
2018-07-15T19:59:47.595Z,1.80
2018-07-15T20:02:16.130Z,2.20
2018-07-15T20:04:45.159Z,1.90
2018-07-15T20:07:13.810Z,1.73
2018-07-15T20:09:43.210Z,1.60
2018-07-15T20:12:12.208Z,2.97
2018-07-15T20:14:40.846Z,1.80
2018-07-15T20:17:09.788Z,2.10
2018-07-15T20:19:38.576Z,1.90
2018-07-15T20:22:07.317Z,1.83
2018-07-15T20:24:35.908Z,2.13
2018-07-15T20:27:05.289Z,1.73
2018-07-15T20:29:33.882Z,1.80
2018-07-15T20:32:02.448Z,1.80
2018-07-15T23:22:51.176Z,2.77
2018-07-15T23:25:19.833Z,2.90
2018-07-15T23:27:48.610Z,2.63
2018-07-15T23:30:17.147Z,2.80
2018-07-15T23:32:45.734Z,3.57
2018-07-15T23:35:14.295Z,3.37
2018-07-15T23:37:43.031Z,3.30
2018-07-15T23:40:11.858Z,3.60
2018-07-15T23:42:41.000Z,3.33
2018-07-15T23:45:10.023Z,3.33
2018-07-15T23:47:38.849Z,3.53
2018-07-15T23:50:08.001Z,3.00
2018-07-15T23:52:36.783Z,3.27
2018-07-15T23:55:05.617Z,3.07
2018-07-15T23:57:34.159Z,3.30
